createdAt,value
2023-01-13T00:01:07.746Z,8.06
2023-01-13T00:03:34.632Z,8.06
2023-01-13T00:06:01.050Z,8.07
2023-01-13T00:08:27.408Z,7.98
2023-01-13T00:10:53.761Z,7.93
2023-01-13T00:13:26.459Z,7.84
2023-01-13T00:16:00.917Z,7.84
2023-01-13T00:18:28.293Z,7.80
2023-01-13T00:21:08.614Z,7.82
2023-01-13T00:23:38.713Z,7.73
2023-01-13T00:26:11.946Z,7.68
2023-01-13T00:28:38.677Z,7.62
2023-01-13T00:31:10.456Z,7.58
2023-01-13T00:33:37.415Z,7.54
2023-01-13T00:36:06.090Z,7.53
2023-01-13T00:38:34.424Z,7.48
2023-01-13T00:41:05.291Z,7.50
2023-01-13T00:43:32.967Z,7.45
2023-01-13T00:45:59.892Z,7.46
2023-01-13T00:48:27.730Z,7.41
2023-01-13T00:51:10.794Z,7.41
2023-01-13T00:53:40.040Z,7.40
2023-01-13T00:56:21.876Z,7.36
2023-01-13T00:58:56.402Z,7.39
2023-01-13T01:01:26.082Z,7.42
2023-01-13T01:03:54.197Z,7.44
2023-01-13T01:06:26.681Z,7.44
2023-01-13T01:08:54.916Z,7.45
2023-01-13T01:11:26.710Z,7.49
2023-01-13T01:13:55.530Z,7.49
2023-01-13T01:16:24.337Z,7.54
2023-01-13T01:18:52.315Z,7.54
2023-01-13T01:21:19.483Z,7.57
2023-01-13T01:23:45.966Z,7.58
2023-01-13T01:26:18.418Z,7.56
2023-01-13T01:28:45.233Z,7.61
2023-01-13T01:31:20.780Z,7.59
2023-01-13T01:33:47.682Z,7.58
2023-01-13T01:36:15.647Z,7.55
2023-01-13T01:38:42.302Z,7.59
2023-01-13T01:41:14.131Z,7.58
2023-01-13T01:44:02.383Z,7.58
2023-01-13T01:46:33.302Z,7.60
2023-01-13T01:49:05.587Z,7.65
2023-01-13T01:51:37.161Z,7.64
2023-01-13T01:54:07.734Z,7.64
2023-01-13T01:56:35.253Z,7.66
2023-01-13T01:59:01.908Z,7.63
2023-01-13T02:01:28.735Z,7.61
2023-01-13T02:04:11.197Z,7.59
2023-01-13T02:06:37.973Z,7.56
2023-01-13T02:09:04.798Z,7.51
2023-01-13T02:11:54.609Z,7.44
2023-01-13T02:14:26.694Z,7.41
2023-01-13T02:17:06.811Z,7.48
2023-01-13T02:20:04.416Z,7.43
2023-01-13T02:22:49.438Z,7.42
2023-01-13T02:25:45.261Z,7.37
2023-01-13T02:28:34.800Z,7.41
2023-01-13T02:31:28.729Z,7.41
2023-01-13T02:34:24.032Z,7.45
2023-01-13T02:36:58.250Z,7.42
2023-01-13T02:39:33.261Z,7.43
2023-01-13T02:42:27.800Z,7.42
2023-01-13T02:45:16.451Z,7.44
2023-01-13T02:47:47.541Z,7.43
2023-01-13T02:50:17.522Z,7.47
2023-01-13T02:52:50.598Z,7.44
2023-01-13T02:55:21.954Z,7.47
2023-01-13T02:57:49.897Z,7.47
2023-01-13T03:00:18.266Z,7.46
2023-01-13T03:02:44.715Z,7.44
2023-01-13T03:05:15.742Z,7.44
2023-01-13T03:08:01.049Z,7.49
2023-01-13T03:11:02.451Z,7.51
2023-01-13T03:13:52.553Z,7.48
2023-01-13T03:16:39.414Z,7.47
2023-01-13T03:19:14.348Z,7.40
2023-01-13T03:22:05.620Z,7.39
2023-01-13T03:24:40.951Z,7.36
2023-01-13T03:27:10.151Z,7.38
2023-01-13T03:29:58.717Z,7.40
2023-01-13T03:32:33.699Z,7.37
2023-01-13T03:35:07.643Z,7.37
2023-01-13T03:37:38.935Z,7.38
2023-01-13T03:40:23.379Z,7.37
2023-01-13T03:43:13.987Z,7.39
2023-01-13T03:45:42.612Z,7.47
2023-01-13T03:48:15.354Z,7.48
2023-01-13T03:50:48.217Z,7.46
2023-01-13T03:53:26.823Z,7.52
2023-01-13T03:56:20.237Z,7.46
2023-01-13T03:58:53.716Z,7.47
2023-01-13T04:01:29.277Z,7.45
2023-01-13T04:04:16.185Z,7.50
2023-01-13T04:06:57.818Z,7.52
2023-01-13T04:09:37.518Z,7.46
2023-01-13T04:12:11.704Z,7.40
2023-01-13T04:14:38.945Z,7.38
2023-01-13T04:17:05.592Z,7.34
2023-01-13T04:19:33.088Z,7.31
2023-01-13T04:21:59.790Z,7.29
2023-01-13T04:24:26.301Z,7.29
2023-01-13T04:26:52.788Z,7.31
2023-01-13T04:29:19.301Z,7.27
2023-01-13T04:31:45.729Z,7.31
2023-01-13T04:34:12.408Z,7.33
2023-01-13T04:36:38.871Z,7.30
2023-01-13T04:39:05.594Z,7.28
2023-01-13T04:41:51.953Z,7.31
2023-01-13T04:44:18.397Z,7.25
2023-01-13T04:46:44.836Z,7.24
2023-01-13T04:49:11.258Z,7.17
2023-01-13T04:51:37.665Z,7.09
2023-01-13T04:54:04.262Z,7.07
2023-01-13T04:56:30.849Z,7.10
2023-01-13T04:58:57.427Z,7.07
2023-01-13T05:01:23.973Z,7.06
2023-01-13T05:03:50.507Z,7.11
2023-01-13T05:06:16.940Z,7.08
2023-01-13T05:08:43.514Z,7.18
2023-01-13T05:11:28.702Z,7.23
2023-01-13T05:14:13.407Z,7.22
2023-01-13T05:16:58.305Z,7.19
2023-01-13T05:19:24.784Z,7.24
2023-01-13T05:22:09.913Z,7.29
2023-01-13T05:24:54.690Z,7.26
2023-01-13T05:27:21.152Z,7.22
2023-01-13T05:29:47.775Z,7.26
2023-01-13T05:32:14.205Z,7.24
2023-01-13T05:34:40.688Z,7.22
2023-01-13T05:37:08.222Z,7.24
2023-01-13T05:39:53.727Z,7.17
2023-01-13T05:42:41.663Z,7.14
2023-01-13T05:45:08.789Z,7.20
2023-01-13T05:47:35.372Z,7.14
2023-01-13T05:50:02.546Z,7.15
2023-01-13T05:52:29.000Z,7.22
2023-01-13T05:54:55.401Z,7.22
2023-01-13T05:57:22.279Z,7.20
2023-01-13T05:59:49.058Z,7.13
2023-01-13T06:02:15.475Z,7.13
2023-01-13T06:04:41.962Z,7.08
2023-01-13T06:07:08.400Z,7.12
2023-01-13T06:09:35.036Z,7.12
2023-01-13T06:12:01.470Z,7.11
2023-01-13T06:14:40.084Z,7.08
2023-01-13T06:17:08.620Z,7.03
2023-01-13T06:19:35.337Z,7.07
2023-01-13T06:22:15.510Z,7.00
2023-01-13T06:24:42.058Z,7.02
2023-01-13T06:27:09.414Z,7.05
2023-01-13T06:29:35.913Z,7.10
2023-01-13T06:32:07.164Z,7.13
2023-01-13T06:34:37.751Z,7.16
2023-01-13T06:37:05.194Z,7.18
2023-01-13T06:39:32.577Z,7.15
2023-01-13T06:42:18.125Z,7.18
2023-01-13T06:44:45.606Z,7.22
2023-01-13T06:47:12.149Z,7.23
2023-01-13T06:49:38.678Z,7.23
2023-01-13T06:52:05.560Z,7.20
2023-01-13T06:54:31.970Z,7.23
2023-01-13T06:56:59.993Z,7.26
2023-01-13T06:59:26.726Z,7.28
2023-01-13T07:01:53.358Z,7.26
2023-01-13T07:04:20.018Z,7.29
2023-01-13T07:06:46.479Z,7.32
2023-01-13T07:09:13.094Z,7.31
2023-01-13T07:11:39.603Z,7.32
2023-01-13T07:14:24.648Z,7.31
2023-01-13T07:16:52.668Z,7.33
2023-01-13T07:19:23.713Z,7.38
2023-01-13T07:21:51.642Z,7.37
2023-01-13T07:24:18.806Z,7.40
2023-01-13T07:26:45.352Z,7.43
2023-01-13T07:29:12.301Z,7.44
2023-01-13T07:31:39.229Z,7.45
2023-01-13T07:34:07.254Z,7.48
2023-01-13T07:36:34.277Z,7.59
2023-01-13T07:39:00.967Z,7.62
2023-01-13T07:41:46.103Z,7.65
2023-01-13T07:44:12.668Z,7.60
2023-01-13T07:46:39.674Z,7.59
2023-01-13T07:49:06.920Z,7.58
2023-01-13T07:51:37.112Z,7.55
2023-01-13T07:54:06.973Z,7.63
2023-01-13T07:56:33.539Z,7.69
2023-01-13T07:59:00.834Z,7.73
2023-01-13T08:01:28.250Z,7.73
2023-01-13T08:03:59.054Z,7.71
2023-01-13T08:06:26.471Z,7.72
2023-01-13T08:08:53.407Z,7.68
2023-01-13T08:11:22.639Z,7.70
2023-01-13T08:13:50.003Z,7.67
2023-01-13T08:16:16.869Z,7.71
2023-01-13T08:18:43.764Z,7.73
2023-01-13T08:21:12.985Z,7.78
2023-01-13T08:23:40.487Z,7.80
2023-01-13T08:26:10.365Z,7.83
2023-01-13T08:28:37.702Z,7.87
2023-01-13T08:31:06.481Z,7.88
2023-01-13T08:33:33.668Z,7.90
2023-01-13T08:36:07.416Z,7.94
2023-01-13T08:38:35.177Z,7.95
2023-01-13T08:41:08.009Z,7.95
2023-01-13T08:43:34.524Z,7.92
2023-01-13T08:46:04.901Z,7.89
2023-01-13T08:48:31.844Z,7.83
2023-01-13T08:51:05.699Z,7.79
2023-01-13T08:53:32.206Z,7.73
2023-01-13T08:55:58.722Z,7.72
2023-01-13T08:58:25.303Z,7.72
2023-01-13T09:00:51.821Z,7.68
2023-01-13T09:03:18.233Z,7.63
2023-01-13T09:05:44.715Z,7.60
2023-01-13T09:08:11.156Z,7.58
2023-01-13T09:10:37.744Z,7.56
2023-01-13T09:13:13.228Z,7.54
2023-01-13T09:15:42.106Z,7.55
2023-01-13T09:18:08.716Z,7.54
2023-01-13T09:20:35.799Z,7.54
2023-01-13T09:23:03.029Z,7.55
2023-01-13T09:25:29.522Z,7.54
2023-01-13T09:27:56.753Z,7.54
2023-01-13T09:30:23.921Z,7.48
2023-01-13T09:33:10.504Z,7.44
2023-01-13T09:35:36.987Z,7.41
2023-01-13T09:38:06.992Z,7.42
2023-01-13T09:40:33.847Z,7.40
2023-01-13T09:43:33.168Z,7.40
2023-01-13T09:46:05.773Z,7.43
2023-01-13T09:48:51.720Z,7.46
2023-01-13T09:51:28.028Z,7.52
2023-01-13T09:54:01.856Z,7.58
2023-01-13T09:56:28.336Z,7.60
2023-01-13T09:58:54.985Z,7.63
2023-01-13T10:01:35.349Z,7.66
2023-01-13T10:04:11.295Z,7.67
2023-01-13T10:06:42.073Z,7.68
2023-01-13T10:09:18.472Z,7.73
2023-01-13T10:12:07.013Z,7.76
2023-01-13T10:14:41.426Z,7.74
2023-01-13T10:17:30.624Z,7.72
2023-01-13T10:20:17.099Z,7.71
2023-01-13T10:22:46.241Z,7.70
2023-01-13T10:25:42.283Z,7.72
2023-01-13T10:28:13.960Z,7.74
2023-01-13T10:30:43.548Z,7.78
2023-01-13T10:33:14.374Z,7.83
2023-01-13T10:35:51.774Z,7.89
2023-01-13T10:38:25.779Z,7.93
2023-01-13T10:40:55.217Z,7.97
2023-01-13T10:43:22.073Z,7.99
2023-01-13T10:46:00.671Z,7.96
2023-01-13T10:48:41.935Z,7.97
2023-01-13T10:51:20.626Z,7.95
2023-01-13T10:53:52.420Z,7.95
2023-01-13T10:56:21.231Z,7.98
2023-01-13T10:58:47.808Z,8.01
2023-01-13T11:01:27.410Z,8.09
2023-01-13T11:03:55.347Z,8.10
2023-01-13T11:06:25.495Z,8.15
2023-01-13T11:08:55.369Z,8.18
2023-01-13T11:11:33.651Z,8.23
2023-01-13T11:14:22.604Z,8.23
2023-01-13T11:16:53.999Z,8.21
2023-01-13T11:19:24.297Z,8.22
2023-01-13T11:22:09.475Z,8.23
2023-01-13T11:24:42.772Z,8.24
2023-01-13T11:27:12.303Z,8.26
2023-01-13T11:29:49.815Z,8.31
2023-01-13T11:32:21.265Z,8.37
2023-01-13T11:35:18.656Z,8.43
2023-01-13T11:37:52.509Z,8.46
2023-01-13T11:40:40.669Z,8.53
2023-01-13T11:43:32.065Z,8.57
2023-01-13T11:46:00.217Z,8.62
2023-01-13T11:48:30.830Z,8.66
2023-01-13T11:51:06.659Z,8.66
2023-01-13T11:53:39.070Z,8.70
2023-01-13T11:56:17.651Z,8.72
2023-01-13T11:59:21.414Z,8.75
2023-01-13T12:02:10.307Z,8.79
2023-01-13T12:05:13.447Z,8.79
2023-01-13T12:07:58.358Z,8.77
2023-01-13T12:10:49.582Z,8.77
2023-01-13T12:13:29.126Z,8.80
2023-01-13T12:16:04.666Z,8.80
2023-01-13T12:18:57.523Z,8.80
2023-01-13T12:21:32.673Z,8.80
2023-01-13T12:24:14.093Z,8.79
2023-01-13T12:26:54.555Z,8.80
2023-01-13T12:29:34.464Z,8.82
2023-01-13T12:32:04.548Z,8.83
2023-01-13T12:34:30.943Z,8.90
2023-01-13T12:37:20.597Z,8.91
2023-01-13T12:39:58.636Z,8.92
2023-01-13T12:42:53.390Z,8.95
2023-01-13T12:45:24.953Z,8.95
2023-01-13T12:47:55.559Z,8.99
2023-01-13T12:50:21.994Z,8.99
2023-01-13T12:52:51.249Z,9.02
2023-01-13T12:55:20.914Z,9.06
2023-01-13T12:58:15.542Z,9.09
2023-01-13T13:00:42.710Z,9.13
2023-01-13T13:03:16.222Z,9.14
2023-01-13T13:06:11.870Z,9.16
2023-01-13T13:09:18.423Z,9.16
2023-01-13T13:11:58.680Z,9.13
2023-01-13T13:14:37.587Z,9.13
2023-01-13T13:17:25.462Z,9.16
2023-01-13T13:19:52.327Z,9.16
2023-01-13T13:22:21.145Z,9.16
2023-01-13T13:24:56.396Z,9.21
2023-01-13T13:27:26.073Z,9.22
2023-01-13T13:30:02.075Z,9.24
2023-01-13T13:32:52.763Z,9.26
2023-01-13T13:35:51.764Z,9.28
2023-01-13T13:39:13.818Z,9.30
2023-01-13T13:42:04.033Z,9.32
2023-01-13T13:44:51.728Z,9.31
2023-01-13T13:47:18.285Z,9.30
2023-01-13T13:49:50.826Z,9.31
2023-01-13T13:52:26.491Z,9.29
2023-01-13T13:54:57.062Z,9.24
2023-01-13T13:57:33.619Z,9.23
2023-01-13T14:00:03.924Z,9.22
2023-01-13T14:02:32.486Z,9.22
2023-01-13T14:05:08.794Z,9.24
2023-01-13T14:07:46.257Z,9.23
2023-01-13T14:10:27.092Z,9.22
2023-01-13T14:12:53.594Z,9.21
2023-01-13T14:15:32.789Z,9.21
2023-01-13T14:18:05.649Z,9.17
2023-01-13T14:20:34.458Z,9.16
2023-01-13T14:23:01.648Z,9.15
2023-01-13T14:25:39.527Z,9.11
2023-01-13T14:28:24.401Z,9.10
2023-01-13T14:30:51.943Z,9.09
2023-01-13T14:33:23.636Z,9.10
2023-01-13T14:36:08.085Z,9.08
2023-01-13T14:38:34.674Z,9.11
2023-01-13T14:41:32.716Z,9.13
2023-01-13T14:44:01.576Z,9.09
2023-01-13T14:46:45.547Z,9.09
2023-01-13T14:49:39.465Z,9.09
2023-01-13T14:52:20.193Z,9.11
2023-01-13T14:54:53.777Z,9.12
2023-01-13T14:57:28.639Z,9.09
2023-01-13T14:59:56.180Z,9.06
2023-01-13T15:02:28.631Z,9.05
2023-01-13T15:04:58.768Z,9.04
2023-01-13T15:07:28.190Z,8.98
2023-01-13T15:10:00.803Z,9.02
2023-01-13T15:12:39.259Z,9.00
2023-01-13T15:15:21.077Z,8.98
2023-01-13T15:17:47.554Z,8.96
2023-01-13T15:20:15.720Z,8.95
2023-01-13T15:22:42.202Z,8.91
2023-01-13T15:25:12.141Z,8.92
2023-01-13T15:27:38.891Z,8.91
2023-01-13T15:30:22.384Z,8.89
2023-01-13T15:32:48.838Z,8.87
2023-01-13T15:35:16.831Z,8.88
2023-01-13T15:37:44.826Z,8.84
2023-01-13T15:40:23.705Z,8.81
2023-01-13T15:43:08.757Z,8.75
2023-01-13T15:45:55.556Z,8.72
2023-01-13T15:48:24.373Z,8.75
2023-01-13T15:50:51.198Z,8.75
2023-01-13T15:53:19.128Z,8.69
2023-01-13T15:55:50.791Z,8.66
2023-01-13T15:58:20.477Z,8.64
2023-01-13T16:00:47.091Z,8.59
2023-01-13T16:03:14.684Z,8.56
2023-01-13T16:05:41.485Z,8.56
2023-01-13T16:08:15.770Z,8.57
2023-01-13T16:10:43.002Z,8.58
2023-01-13T16:13:09.634Z,8.57
2023-01-13T16:15:36.715Z,8.61
2023-01-13T16:18:04.546Z,8.58
2023-01-13T16:20:31.227Z,8.57
2023-01-13T16:22:57.648Z,8.61
2023-01-13T16:25:26.285Z,8.65
2023-01-13T16:27:53.183Z,8.65
2023-01-13T16:30:32.278Z,8.63
2023-01-13T16:32:58.963Z,8.61
2023-01-13T16:35:25.686Z,8.56
2023-01-13T16:37:53.828Z,8.51
2023-01-13T16:40:21.045Z,8.49
2023-01-13T16:42:47.447Z,8.48
2023-01-13T16:45:13.958Z,8.46
2023-01-13T16:47:40.581Z,8.41
2023-01-13T16:50:08.042Z,8.40
2023-01-13T16:52:34.423Z,8.39
2023-01-13T16:55:01.223Z,8.33
2023-01-13T16:57:27.652Z,8.23
2023-01-13T16:59:54.242Z,8.06
2023-01-13T17:02:21.185Z,7.91
2023-01-13T17:04:47.642Z,7.77
2023-01-13T17:07:16.799Z,7.66
2023-01-13T17:09:43.318Z,7.53
2023-01-13T17:12:10.533Z,7.42
2023-01-13T17:14:36.951Z,7.33
2023-01-13T17:17:03.357Z,7.25
2023-01-13T17:19:29.867Z,7.18
2023-01-13T17:21:56.245Z,7.17
2023-01-13T17:24:24.705Z,7.16
2023-01-13T17:26:51.571Z,7.16
2023-01-13T17:29:22.163Z,7.16
2023-01-13T17:31:50.263Z,7.15
2023-01-13T17:34:16.923Z,7.13
2023-01-13T17:36:43.404Z,7.08
2023-01-13T17:39:16.114Z,7.02
2023-01-13T17:41:42.523Z,6.95
2023-01-13T17:44:11.377Z,6.89
2023-01-13T17:46:37.752Z,6.81
2023-01-13T17:49:04.106Z,6.74
2023-01-13T17:51:30.507Z,6.70
2023-01-13T17:53:56.855Z,6.69
2023-01-13T17:56:25.165Z,6.68
2023-01-13T17:58:52.385Z,6.67
2023-01-13T18:01:20.952Z,6.63
2023-01-13T18:03:48.017Z,6.62
2023-01-13T18:06:18.510Z,6.58
2023-01-13T18:08:45.979Z,6.56
2023-01-13T18:11:12.944Z,6.55
2023-01-13T18:13:41.367Z,6.52
2023-01-13T18:16:12.945Z,6.52
2023-01-13T18:18:41.330Z,6.52
2023-01-13T18:21:32.513Z,6.50
2023-01-13T18:24:17.282Z,6.50
2023-01-13T18:27:02.140Z,6.48
2023-01-13T18:29:28.575Z,6.47
2023-01-13T18:31:54.944Z,6.49
2023-01-13T18:34:21.419Z,6.48
2023-01-13T18:36:47.911Z,6.49
2023-01-13T18:39:14.543Z,6.56
2023-01-13T18:41:59.644Z,6.63
2023-01-13T18:44:26.041Z,6.69
2023-01-13T18:46:52.531Z,6.73
2023-01-13T18:49:19.088Z,6.78
2023-01-13T18:51:45.568Z,6.93
2023-01-13T18:54:12.102Z,6.98
2023-01-13T18:56:38.540Z,7.03
2023-01-13T18:59:05.004Z,7.05
2023-01-13T19:01:31.601Z,7.05
2023-01-13T19:03:59.382Z,7.13
2023-01-13T19:06:27.744Z,7.14
2023-01-13T19:08:55.966Z,7.19
2023-01-13T19:11:24.023Z,7.20
2023-01-13T19:13:51.447Z,7.15
2023-01-13T19:16:19.024Z,7.12
2023-01-13T19:18:45.633Z,7.06
2023-01-13T19:21:12.117Z,7.05
2023-01-13T19:23:38.602Z,7.13
2023-01-13T19:26:07.757Z,7.15
2023-01-13T19:28:35.183Z,7.15
2023-01-13T19:31:03.766Z,7.15
2023-01-13T19:33:33.755Z,7.17
2023-01-13T19:36:01.090Z,7.18
2023-01-13T19:38:28.125Z,7.13
2023-01-13T19:40:56.136Z,7.13
2023-01-13T19:43:42.041Z,7.14
2023-01-13T19:46:09.167Z,7.18
2023-01-13T19:48:36.053Z,7.21
2023-01-13T19:51:02.811Z,7.25
2023-01-13T19:53:30.618Z,7.23
2023-01-13T19:55:57.859Z,7.20
2023-01-13T19:58:26.062Z,7.21
2023-01-13T20:00:54.149Z,7.25
2023-01-13T20:03:26.092Z,7.25
2023-01-13T20:05:56.933Z,7.34
2023-01-13T20:08:23.673Z,7.37
2023-01-13T20:10:50.204Z,7.37
2023-01-13T20:13:16.563Z,7.32
2023-01-13T20:15:43.824Z,7.30
2023-01-13T20:18:10.290Z,7.31
2023-01-13T20:20:37.254Z,7.37
2023-01-13T20:23:03.688Z,7.32
2023-01-13T20:25:30.259Z,7.32
2023-01-13T20:27:57.493Z,7.36
2023-01-13T20:30:24.282Z,7.33
2023-01-13T20:32:50.851Z,7.35
2023-01-13T20:35:17.341Z,7.33
2023-01-13T20:37:43.956Z,7.34
2023-01-13T20:40:16.164Z,7.31
2023-01-13T20:42:44.865Z,7.39
2023-01-13T20:45:16.977Z,7.41
2023-01-13T20:47:44.631Z,7.49
2023-01-13T20:50:11.745Z,7.47
2023-01-13T20:52:38.193Z,7.48
2023-01-13T20:55:06.786Z,7.44
2023-01-13T20:57:33.307Z,7.40
2023-01-13T21:00:00.398Z,7.34
2023-01-13T21:02:26.824Z,7.33
2023-01-13T21:04:53.293Z,7.31
2023-01-13T21:07:19.922Z,7.30
2023-01-13T21:09:46.508Z,7.32
2023-01-13T21:12:35.793Z,7.30
2023-01-13T21:15:17.049Z,7.38
2023-01-13T21:18:03.186Z,7.39
2023-01-13T21:20:35.783Z,7.35
2023-01-13T21:23:03.495Z,7.30
2023-01-13T21:25:30.895Z,7.28
2023-01-13T21:28:08.508Z,7.26
2023-01-13T21:30:36.180Z,7.22
2023-01-13T21:33:03.982Z,7.21
2023-01-13T21:35:30.844Z,7.19
2023-01-13T21:37:57.457Z,7.19
2023-01-13T21:40:23.993Z,7.20
2023-01-13T21:43:09.065Z,7.20
2023-01-13T21:45:57.435Z,7.16
2023-01-13T21:48:23.950Z,7.16
2023-01-13T21:50:52.490Z,7.20
2023-01-13T21:53:18.927Z,7.22
2023-01-13T21:55:50.548Z,7.21
2023-01-13T21:58:16.909Z,7.21
2023-01-13T22:00:44.781Z,7.24
2023-01-13T22:03:12.672Z,7.25
2023-01-13T22:05:39.844Z,7.23
2023-01-13T22:08:07.350Z,7.22
2023-01-13T22:10:34.479Z,7.17
2023-01-13T22:13:22.298Z,7.26
2023-01-13T22:15:48.707Z,7.26
2023-01-13T22:18:15.251Z,7.30
2023-01-13T22:20:42.087Z,7.44
2023-01-13T22:23:08.632Z,7.46
2023-01-13T22:25:35.195Z,7.57
2023-01-13T22:28:05.917Z,7.54
2023-01-13T22:30:33.252Z,7.53
2023-01-13T22:33:00.296Z,7.52
2023-01-13T22:35:26.765Z,7.50
2023-01-13T22:37:53.193Z,7.48
2023-01-13T22:40:19.751Z,7.51
2023-01-13T22:42:46.122Z,7.50
2023-01-13T22:45:13.892Z,7.49
2023-01-13T22:47:40.726Z,7.48
2023-01-13T22:50:09.051Z,7.48
2023-01-13T22:52:35.698Z,7.51
2023-01-13T22:55:02.230Z,7.49
2023-01-13T22:57:36.669Z,7.45
2023-01-13T23:00:14.760Z,7.41
2023-01-13T23:02:41.209Z,7.38
2023-01-13T23:05:08.013Z,7.37
2023-01-13T23:07:35.415Z,7.47
2023-01-13T23:10:02.371Z,7.45
2023-01-13T23:12:28.773Z,7.44
2023-01-13T23:14:55.169Z,7.42
2023-01-13T23:17:21.532Z,7.40
2023-01-13T23:19:48.084Z,7.40
2023-01-13T23:22:14.450Z,7.41
2023-01-13T23:24:40.885Z,7.44
2023-01-13T23:27:07.324Z,7.47
2023-01-13T23:29:33.766Z,7.46
2023-01-13T23:32:00.151Z,7.45
2023-01-13T23:34:26.643Z,7.48
2023-01-13T23:36:53.188Z,7.51
2023-01-13T23:39:19.724Z,7.56
2023-01-13T23:41:46.092Z,7.56
2023-01-13T23:44:12.573Z,7.53
2023-01-13T23:46:38.944Z,7.58
2023-01-13T23:49:05.467Z,7.54
2023-01-13T23:51:32.333Z,7.52
2023-01-13T23:53:59.521Z,7.50
2023-01-13T23:56:30.779Z,7.50
2023-01-13T23:58:57.485Z,7.48
